<?xml version="1.0" encoding="UTF-8"?>
<gpx version="1.1" creator="Endomondo.com" xsi:schemaLocation="http://www.topografix.com/GPX/1/1 http://www.topografix.com/GPX/1/1/gpx.xsd http://www.garmin.com/xmlschemas/GpxExtensions/v3 http://www.garmin.com/xmlschemas/GpxExtensionsv3.xsd http://www.garmin.com/xmlschemas/TrackPointExtension/v1 http://www.garmin.com/xmlschemas/TrackPointExtensionv1.xsd" xmlns="http://www.topografix.com/GPX/1/1" xmlns:gpxtpx="http://www.garmin.com/xmlschemas/TrackPointExtension/v1" xmlns:gpxx="http://www.garmin.com/xmlschemas/GpxExtensions/v3" xmlns:xsi="http://www.w3.org/2001/XMLSchema-instance">
  <metadata>
    <author>
      <name>jose manuel</name>
      <email id="jmanuelguerrero" domain="gmail.com"/>
    </author>
    <link href="http://www.endomondo.com">
      <text>Endomondo</text>
    </link>
    <time>2016-08-24T09:42:04Z</time>
  </metadata>
  <trk>
    <src>http://www.endomondo.com/</src>
    <link href="https://www.endomondo.com/workouts/659390297/159315">
      <text>endomondo</text>
    </link>
    <type>OTHER</type>
    <trkseg>
      <trkpt lat="42.873479" lon="-5.3749109">
        <time>2016-01-19T16:13:58Z</time>
      </trkpt>
      <trkpt lat="42.873479" lon="-5.3749109">
        <ele>1546.6</ele>
        <time>2016-01-19T16:14:03Z</time>
      </trkpt>
      <trkpt lat="42.8734217" lon="-5.3748707">
        <ele>1563.2</ele>
        <time>2016-01-19T16:15:34Z</time>
      </trkpt>
      <trkpt lat="42.8733786" lon="-5.3748935">
        <ele>1560.6</ele>
        <time>2016-01-19T16:20:31Z</time>
      </trkpt>
      <trkpt lat="42.8733468" lon="-5.3749388">
        <ele>1560.4</ele>
        <time>2016-01-19T16:20:50Z</time>
      </trkpt>
      <trkpt lat="42.873252" lon="-5.3749013">
        <ele>1561.5</ele>
        <time>2016-01-19T16:23:29Z</time>
      </trkpt>
      <trkpt lat="42.8731575" lon="-5.3748317">
        <ele>1561.5</ele>
        <time>2016-01-19T16:23:33Z</time>
      </trkpt>
      <trkpt lat="42.8730803" lon="-5.3747864">
        <ele>1561.5</ele>
        <time>2016-01-19T16:23:35Z</time>
      </trkpt>
      <trkpt lat="42.8730321" lon="-5.3747521">
        <ele>1561.5</ele>
        <time>2016-01-19T16:23:36Z</time>
      </trkpt>
      <trkpt lat="42.8729815" lon="-5.3746999">
        <ele>1561.5</ele>
        <time>2016-01-19T16:23:37Z</time>
      </trkpt>
      <trkpt lat="42.8729286" lon="-5.3746398">
        <ele>1561.5</ele>
        <time>2016-01-19T16:23:38Z</time>
      </trkpt>
      <trkpt lat="42.8728629" lon="-5.3745731">
        <ele>1561.5</ele>
        <time>2016-01-19T16:23:39Z</time>
      </trkpt>
      <trkpt lat="42.8727202" lon="-5.3744537">
        <ele>1561.5</ele>
        <time>2016-01-19T16:23:41Z</time>
      </trkpt>
      <trkpt lat="42.8725894" lon="-5.3743663">
        <ele>1561.5</ele>
        <time>2016-01-19T16:23:43Z</time>
      </trkpt>
      <trkpt lat="42.872419" lon="-5.3742412">
        <ele>1561.5</ele>
        <time>2016-01-19T16:23:46Z</time>
      </trkpt>
      <trkpt lat="42.8722782" lon="-5.3742471">
        <ele>1561.4</ele>
        <time>2016-01-19T16:23:48Z</time>
      </trkpt>
      <trkpt lat="42.8720893" lon="-5.3743105">
        <ele>1561.4</ele>
        <time>2016-01-19T16:23:51Z</time>
      </trkpt>
      <trkpt lat="42.8719623" lon="-5.3743523">
        <ele>1561.4</ele>
        <time>2016-01-19T16:23:53Z</time>
      </trkpt>
      <trkpt lat="42.8717921" lon="-5.3744663">
        <ele>1561.3</ele>
        <time>2016-01-19T16:23:56Z</time>
      </trkpt>
      <trkpt lat="42.8716822" lon="-5.3745552">
        <ele>1561.1</ele>
        <time>2016-01-19T16:23:58Z</time>
      </trkpt>
      <trkpt lat="42.8715574" lon="-5.3746429">
        <ele>1560.7</ele>
        <time>2016-01-19T16:24:00Z</time>
      </trkpt>
      <trkpt lat="42.8714464" lon="-5.3747268">
        <ele>1560.4</ele>
        <time>2016-01-19T16:24:02Z</time>
      </trkpt>
      <trkpt lat="42.8713426" lon="-5.3748265">
        <ele>1560.2</ele>
        <time>2016-01-19T16:24:04Z</time>
      </trkpt>
      <trkpt lat="42.8712026" lon="-5.3749008">
        <ele>1560.1</ele>
        <time>2016-01-19T16:24:06Z</time>
      </trkpt>
      <trkpt lat="42.8710715" lon="-5.3749618">
        <ele>1559.9</ele>
        <time>2016-01-19T16:24:08Z</time>
      </trkpt>
      <trkpt lat="42.8709108" lon="-5.3750832">
        <ele>1559.1</ele>
        <time>2016-01-19T16:24:11Z</time>
      </trkpt>
      <trkpt lat="42.8708016" lon="-5.3751631">
        <ele>1557.3</ele>
        <time>2016-01-19T16:24:13Z</time>
      </trkpt>
      <trkpt lat="42.8706299" lon="-5.3752811">
        <ele>1554.1</ele>
        <time>2016-01-19T16:24:16Z</time>
      </trkpt>
      <trkpt lat="42.8704597" lon="-5.3753921">
        <ele>1548.5</ele>
        <time>2016-01-19T16:24:19Z</time>
      </trkpt>
      <trkpt lat="42.870327" lon="-5.3754118">
        <ele>1545.9</ele>
        <time>2016-01-19T16:24:21Z</time>
      </trkpt>
      <trkpt lat="42.8701265" lon="-5.3755316">
        <ele>1534.3</ele>
        <time>2016-01-19T16:24:24Z</time>
      </trkpt>
      <trkpt lat="42.8700554" lon="-5.3755663">
        <ele>1534.3</ele>
        <time>2016-01-19T16:24:25Z</time>
      </trkpt>
      <trkpt lat="42.8699913" lon="-5.3755691">
        <ele>1534.3</ele>
        <time>2016-01-19T16:24:26Z</time>
      </trkpt>
      <trkpt lat="42.8699253" lon="-5.3755523">
        <ele>1534.3</ele>
        <time>2016-01-19T16:24:27Z</time>
      </trkpt>
      <trkpt lat="42.8698384" lon="-5.3755054">
        <ele>1529.6</ele>
        <time>2016-01-19T16:24:28Z</time>
      </trkpt>
      <trkpt lat="42.8696863" lon="-5.3754178">
        <ele>1527.4</ele>
        <time>2016-01-19T16:24:30Z</time>
      </trkpt>
      <trkpt lat="42.8695557" lon="-5.3753582">
        <ele>1518.5</ele>
        <time>2016-01-19T16:24:32Z</time>
      </trkpt>
      <trkpt lat="42.8694807" lon="-5.3753177">
        <ele>1518.5</ele>
        <time>2016-01-19T16:24:33Z</time>
      </trkpt>
      <trkpt lat="42.8694091" lon="-5.3752751">
        <ele>1518.5</ele>
        <time>2016-01-19T16:24:34Z</time>
      </trkpt>
      <trkpt lat="42.8693314" lon="-5.3752138">
        <ele>1518.5</ele>
        <time>2016-01-19T16:24:35Z</time>
      </trkpt>
      <trkpt lat="42.8692562" lon="-5.3751032">
        <ele>1518.5</ele>
        <time>2016-01-19T16:24:36Z</time>
      </trkpt>
      <trkpt lat="42.8691121" lon="-5.3749835">
        <ele>1515.2</ele>
        <time>2016-01-19T16:24:38Z</time>
      </trkpt>
      <trkpt lat="42.8689843" lon="-5.3748367">
        <ele>1513.5</ele>
        <time>2016-01-19T16:24:40Z</time>
      </trkpt>
      <trkpt lat="42.8688656" lon="-5.3746683">
        <ele>1511.8</ele>
        <time>2016-01-19T16:24:42Z</time>
      </trkpt>
      <trkpt lat="42.8687382" lon="-5.3744932">
        <ele>1509.7</ele>
        <time>2016-01-19T16:24:44Z</time>
      </trkpt>
      <trkpt lat="42.8686469" lon="-5.3742757">
        <ele>1507.3</ele>
        <time>2016-01-19T16:24:46Z</time>
      </trkpt>
      <trkpt lat="42.868541" lon="-5.3740671">
        <ele>1506.0</ele>
        <time>2016-01-19T16:24:48Z</time>
      </trkpt>
      <trkpt lat="42.8684479" lon="-5.3738246">
        <ele>1503.8</ele>
        <time>2016-01-19T16:24:50Z</time>
      </trkpt>
      <trkpt lat="42.8684008" lon="-5.3735786">
        <ele>1500.4</ele>
        <time>2016-01-19T16:24:52Z</time>
      </trkpt>
      <trkpt lat="42.8683849" lon="-5.3732853">
        <ele>1498.1</ele>
        <time>2016-01-19T16:24:54Z</time>
      </trkpt>
      <trkpt lat="42.8683337" lon="-5.3730617">
        <ele>1496.5</ele>
        <time>2016-01-19T16:24:56Z</time>
      </trkpt>
      <trkpt lat="42.8683189" lon="-5.3727721">
        <ele>1493.4</ele>
        <time>2016-01-19T16:24:58Z</time>
      </trkpt>
      <trkpt lat="42.8682936" lon="-5.3724888">
        <ele>1491.0</ele>
        <time>2016-01-19T16:25:00Z</time>
      </trkpt>
      <trkpt lat="42.86828" lon="-5.3722435">
        <ele>1489.3</ele>
        <time>2016-01-19T16:25:02Z</time>
      </trkpt>
      <trkpt lat="42.8682508" lon="-5.3719798">
        <ele>1486.6</ele>
        <time>2016-01-19T16:25:04Z</time>
      </trkpt>
      <trkpt lat="42.8682201" lon="-5.3716893">
        <ele>1484.6</ele>
        <time>2016-01-19T16:25:06Z</time>
      </trkpt>
      <trkpt lat="42.8681896" lon="-5.3714428">
        <ele>1482.4</ele>
        <time>2016-01-19T16:25:08Z</time>
      </trkpt>
      <trkpt lat="42.8681466" lon="-5.3712069">
        <ele>1480.4</ele>
        <time>2016-01-19T16:25:10Z</time>
      </trkpt>
      <trkpt lat="42.8681143" lon="-5.3709769">
        <ele>1478.0</ele>
        <time>2016-01-19T16:25:12Z</time>
      </trkpt>
      <trkpt lat="42.8680838" lon="-5.3707351">
        <ele>1475.1</ele>
        <time>2016-01-19T16:25:14Z</time>
      </trkpt>
      <trkpt lat="42.868067" lon="-5.3704976">
        <ele>1472.4</ele>
        <time>2016-01-19T16:25:16Z</time>
      </trkpt>
      <trkpt lat="42.8680226" lon="-5.3702643">
        <ele>1469.6</ele>
        <time>2016-01-19T16:25:18Z</time>
      </trkpt>
      <trkpt lat="42.8679896" lon="-5.3700423">
        <ele>1467.2</ele>
        <time>2016-01-19T16:25:20Z</time>
      </trkpt>
      <trkpt lat="42.8679482" lon="-5.3697766">
        <ele>1465.9</ele>
        <time>2016-01-19T16:25:22Z</time>
      </trkpt>
      <trkpt lat="42.8679087" lon="-5.3695559">
        <ele>1464.3</ele>
        <time>2016-01-19T16:25:24Z</time>
      </trkpt>
      <trkpt lat="42.8678523" lon="-5.3693315">
        <ele>1462.3</ele>
        <time>2016-01-19T16:25:26Z</time>
      </trkpt>
      <trkpt lat="42.8678179" lon="-5.3690936">
        <ele>1460.3</ele>
        <time>2016-01-19T16:25:28Z</time>
      </trkpt>
      <trkpt lat="42.8677842" lon="-5.3688639">
        <ele>1458.7</ele>
        <time>2016-01-19T16:25:30Z</time>
      </trkpt>
      <trkpt lat="42.8677568" lon="-5.368608">
        <ele>1457.5</ele>
        <time>2016-01-19T16:25:32Z</time>
      </trkpt>
      <trkpt lat="42.8677499" lon="-5.3683529">
        <ele>1456.3</ele>
        <time>2016-01-19T16:25:34Z</time>
      </trkpt>
      <trkpt lat="42.8677549" lon="-5.3681295">
        <ele>1454.0</ele>
        <time>2016-01-19T16:25:36Z</time>
      </trkpt>
      <trkpt lat="42.8677712" lon="-5.3678906">
        <ele>1450.5</ele>
        <time>2016-01-19T16:25:38Z</time>
      </trkpt>
      <trkpt lat="42.8677733" lon="-5.3676314">
        <ele>1448.6</ele>
        <time>2016-01-19T16:25:40Z</time>
      </trkpt>
      <trkpt lat="42.8677794" lon="-5.367396">
        <ele>1447.1</ele>
        <time>2016-01-19T16:25:42Z</time>
      </trkpt>
      <trkpt lat="42.8677966" lon="-5.3671603">
        <ele>1445.7</ele>
        <time>2016-01-19T16:25:44Z</time>
      </trkpt>
      <trkpt lat="42.8678369" lon="-5.3669422">
        <ele>1445.0</ele>
        <time>2016-01-19T16:25:46Z</time>
      </trkpt>
      <trkpt lat="42.8678629" lon="-5.3666817">
        <ele>1444.5</ele>
        <time>2016-01-19T16:25:48Z</time>
      </trkpt>
      <trkpt lat="42.8678888" lon="-5.3664506">
        <ele>1444.2</ele>
        <time>2016-01-19T16:25:50Z</time>
      </trkpt>
      <trkpt lat="42.867924" lon="-5.3662115">
        <ele>1444.1</ele>
        <time>2016-01-19T16:25:52Z</time>
      </trkpt>
      <trkpt lat="42.867986" lon="-5.3659364">
        <ele>1443.8</ele>
        <time>2016-01-19T16:25:54Z</time>
      </trkpt>
      <trkpt lat="42.8680042" lon="-5.3657183">
        <ele>1442.9</ele>
        <time>2016-01-19T16:25:56Z</time>
      </trkpt>
      <trkpt lat="42.8680457" lon="-5.3654524">
        <ele>1441.3</ele>
        <time>2016-01-19T16:25:58Z</time>
      </trkpt>
      <trkpt lat="42.8681046" lon="-5.3652115">
        <ele>1440.2</ele>
        <time>2016-01-19T16:26:00Z</time>
      </trkpt>
      <trkpt lat="42.8681498" lon="-5.3649768">
        <ele>1439.0</ele>
        <time>2016-01-19T16:26:02Z</time>
      </trkpt>
      <trkpt lat="42.868241" lon="-5.3648017">
        <ele>1437.4</ele>
        <time>2016-01-19T16:26:04Z</time>
      </trkpt>
      <trkpt lat="42.8683058" lon="-5.3645283">
        <ele>1435.9</ele>
        <time>2016-01-19T16:26:06Z</time>
      </trkpt>
      <trkpt lat="42.8683721" lon="-5.364358">
        <ele>1434.9</ele>
        <time>2016-01-19T16:26:08Z</time>
      </trkpt>
      <trkpt lat="42.8684118" lon="-5.3640962">
        <ele>1434.1</ele>
        <time>2016-01-19T16:26:10Z</time>
      </trkpt>
      <trkpt lat="42.8684786" lon="-5.3638336">
        <ele>1433.6</ele>
        <time>2016-01-19T16:26:12Z</time>
      </trkpt>
      <trkpt lat="42.8685743" lon="-5.3636273">
        <ele>1432.5</ele>
        <time>2016-01-19T16:26:14Z</time>
      </trkpt>
      <trkpt lat="42.8686342" lon="-5.3634015">
        <ele>1431.2</ele>
        <time>2016-01-19T16:26:16Z</time>
      </trkpt>
      <trkpt lat="42.8687322" lon="-5.3632167">
        <ele>1430.2</ele>
        <time>2016-01-19T16:26:18Z</time>
      </trkpt>
      <trkpt lat="42.8688314" lon="-5.3630366">
        <ele>1429.9</ele>
        <time>2016-01-19T16:26:20Z</time>
      </trkpt>
      <trkpt lat="42.8689395" lon="-5.3628625">
        <ele>1429.2</ele>
        <time>2016-01-19T16:26:22Z</time>
      </trkpt>
      <trkpt lat="42.8690947" lon="-5.3627947">
        <ele>1426.9</ele>
        <time>2016-01-19T16:26:24Z</time>
      </trkpt>
      <trkpt lat="42.8691918" lon="-5.3625373">
        <ele>1424.9</ele>
        <time>2016-01-19T16:26:26Z</time>
      </trkpt>
      <trkpt lat="42.8693065" lon="-5.3623986">
        <ele>1422.7</ele>
        <time>2016-01-19T16:26:28Z</time>
      </trkpt>
      <trkpt lat="42.8693426" lon="-5.3621369">
        <ele>1420.7</ele>
        <time>2016-01-19T16:26:30Z</time>
      </trkpt>
      <trkpt lat="42.8693137" lon="-5.3618703">
        <ele>1419.7</ele>
        <time>2016-01-19T16:26:32Z</time>
      </trkpt>
      <trkpt lat="42.8692376" lon="-5.361642">
        <ele>1419.2</ele>
        <time>2016-01-19T16:26:34Z</time>
      </trkpt>
      <trkpt lat="42.8690886" lon="-5.3615052">
        <ele>1418.6</ele>
        <time>2016-01-19T16:26:36Z</time>
      </trkpt>
      <trkpt lat="42.8689482" lon="-5.3614574">
        <ele>1418.3</ele>
        <time>2016-01-19T16:26:38Z</time>
      </trkpt>
      <trkpt lat="42.8688159" lon="-5.3614798">
        <ele>1417.1</ele>
        <time>2016-01-19T16:26:40Z</time>
      </trkpt>
      <trkpt lat="42.8686898" lon="-5.361573">
        <ele>1415.4</ele>
        <time>2016-01-19T16:26:42Z</time>
      </trkpt>
      <trkpt lat="42.8685949" lon="-5.3617275">
        <ele>1414.0</ele>
        <time>2016-01-19T16:26:44Z</time>
      </trkpt>
      <trkpt lat="42.8685053" lon="-5.3619706">
        <ele>1413.1</ele>
        <time>2016-01-19T16:26:47Z</time>
      </trkpt>
      <trkpt lat="42.8684781" lon="-5.3621795">
        <ele>1412.0</ele>
        <time>2016-01-19T16:26:49Z</time>
      </trkpt>
      <trkpt lat="42.868455" lon="-5.3623707">
        <ele>1410.7</ele>
        <time>2016-01-19T16:26:51Z</time>
      </trkpt>
      <trkpt lat="42.8684342" lon="-5.3626049">
        <ele>1410.0</ele>
        <time>2016-01-19T16:26:53Z</time>
      </trkpt>
      <trkpt lat="42.8684213" lon="-5.3628261">
        <ele>1408.1</ele>
        <time>2016-01-19T16:26:55Z</time>
      </trkpt>
      <trkpt lat="42.8684008" lon="-5.3630481">
        <ele>1406.3</ele>
        <time>2016-01-19T16:26:57Z</time>
      </trkpt>
      <trkpt lat="42.8683732" lon="-5.3632421">
        <ele>1405.4</ele>
        <time>2016-01-19T16:26:59Z</time>
      </trkpt>
      <trkpt lat="42.8683449" lon="-5.3634733">
        <ele>1404.1</ele>
        <time>2016-01-19T16:27:01Z</time>
      </trkpt>
      <trkpt lat="42.8683244" lon="-5.3637167">
        <ele>1401.7</ele>
        <time>2016-01-19T16:27:03Z</time>
      </trkpt>
      <trkpt lat="42.8682937" lon="-5.3639311">
        <ele>1399.3</ele>
        <time>2016-01-19T16:27:05Z</time>
      </trkpt>
      <trkpt lat="42.8682651" lon="-5.3641276">
        <ele>1397.6</ele>
        <time>2016-01-19T16:27:07Z</time>
      </trkpt>
      <trkpt lat="42.8682203" lon="-5.3643367">
        <ele>1397.0</ele>
        <time>2016-01-19T16:27:09Z</time>
      </trkpt>
      <trkpt lat="42.868161" lon="-5.3645346">
        <ele>1395.9</ele>
        <time>2016-01-19T16:27:11Z</time>
      </trkpt>
      <trkpt lat="42.8680733" lon="-5.3646756">
        <ele>1394.4</ele>
        <time>2016-01-19T16:27:13Z</time>
      </trkpt>
      <trkpt lat="42.8678807" lon="-5.3648201">
        <ele>1393.0</ele>
        <time>2016-01-19T16:27:16Z</time>
      </trkpt>
      <trkpt lat="42.867789" lon="-5.3648463">
        <ele>1391.6</ele>
        <time>2016-01-19T16:27:17Z</time>
      </trkpt>
      <trkpt lat="42.8675744" lon="-5.3649173">
        <ele>1389.9</ele>
        <time>2016-01-19T16:27:20Z</time>
      </trkpt>
      <trkpt lat="42.8674393" lon="-5.3649273">
        <ele>1388.1</ele>
        <time>2016-01-19T16:27:22Z</time>
      </trkpt>
      <trkpt lat="42.8673127" lon="-5.3649433">
        <ele>1385.5</ele>
        <time>2016-01-19T16:27:24Z</time>
      </trkpt>
      <trkpt lat="42.8672239" lon="-5.3648861">
        <ele>1385.5</ele>
        <time>2016-01-19T16:27:25Z</time>
      </trkpt>
      <trkpt lat="42.8671442" lon="-5.3648458">
        <ele>1385.5</ele>
        <time>2016-01-19T16:27:26Z</time>
      </trkpt>
      <trkpt lat="42.8670729" lon="-5.364744">
        <ele>1385.5</ele>
        <time>2016-01-19T16:27:27Z</time>
      </trkpt>
      <trkpt lat="42.8670169" lon="-5.3646711">
        <ele>1385.5</ele>
        <time>2016-01-19T16:27:28Z</time>
      </trkpt>
      <trkpt lat="42.8669192" lon="-5.3645102">
        <ele>1384.2</ele>
        <time>2016-01-19T16:27:30Z</time>
      </trkpt>
      <trkpt lat="42.8668659" lon="-5.3643022">
        <ele>1381.9</ele>
        <time>2016-01-19T16:27:32Z</time>
      </trkpt>
      <trkpt lat="42.8668538" lon="-5.3640771">
        <ele>1379.3</ele>
        <time>2016-01-19T16:27:34Z</time>
      </trkpt>
      <trkpt lat="42.8668573" lon="-5.3638004">
        <ele>1377.4</ele>
        <time>2016-01-19T16:27:36Z</time>
      </trkpt>
      <trkpt lat="42.8668135" lon="-5.363554">
        <ele>1375.7</ele>
        <time>2016-01-19T16:27:38Z</time>
      </trkpt>
      <trkpt lat="42.8666833" lon="-5.3634446">
        <ele>1374.7</ele>
        <time>2016-01-19T16:27:40Z</time>
      </trkpt>
      <trkpt lat="42.8665383" lon="-5.3633469">
        <ele>1374.1</ele>
        <time>2016-01-19T16:27:42Z</time>
      </trkpt>
      <trkpt lat="42.8663916" lon="-5.3633896">
        <ele>1373.5</ele>
        <time>2016-01-19T16:27:44Z</time>
      </trkpt>
      <trkpt lat="42.8662639" lon="-5.3635002">
        <ele>1373.3</ele>
        <time>2016-01-19T16:27:46Z</time>
      </trkpt>
      <trkpt lat="42.866191" lon="-5.363682">
        <ele>1371.5</ele>
        <time>2016-01-19T16:27:48Z</time>
      </trkpt>
      <trkpt lat="42.8660977" lon="-5.3638516">
        <ele>1370.4</ele>
        <time>2016-01-19T16:27:50Z</time>
      </trkpt>
      <trkpt lat="42.8659749" lon="-5.3639936">
        <ele>1370.0</ele>
        <time>2016-01-19T16:27:52Z</time>
      </trkpt>
      <trkpt lat="42.865852" lon="-5.3641004">
        <ele>1369.3</ele>
        <time>2016-01-19T16:27:54Z</time>
      </trkpt>
      <trkpt lat="42.8657358" lon="-5.3641951">
        <ele>1368.7</ele>
        <time>2016-01-19T16:27:56Z</time>
      </trkpt>
      <trkpt lat="42.8656145" lon="-5.3642897">
        <ele>1368.1</ele>
        <time>2016-01-19T16:27:58Z</time>
      </trkpt>
      <trkpt lat="42.8654841" lon="-5.3643449">
        <ele>1367.7</ele>
        <time>2016-01-19T16:28:00Z</time>
      </trkpt>
      <trkpt lat="42.8653476" lon="-5.3644215">
        <ele>1362.9</ele>
        <time>2016-01-19T16:28:02Z</time>
      </trkpt>
      <trkpt lat="42.8652775" lon="-5.3644485">
        <ele>1362.9</ele>
        <time>2016-01-19T16:28:03Z</time>
      </trkpt>
      <trkpt lat="42.8650606" lon="-5.3645394">
        <ele>1362.9</ele>
        <time>2016-01-19T16:28:06Z</time>
      </trkpt>
      <trkpt lat="42.8647848" lon="-5.3646148">
        <ele>1360.4</ele>
        <time>2016-01-19T16:28:10Z</time>
      </trkpt>
      <trkpt lat="42.8645904" lon="-5.3646903">
        <ele>1359.1</ele>
        <time>2016-01-19T16:28:13Z</time>
      </trkpt>
      <trkpt lat="42.8644584" lon="-5.364785">
        <ele>1353.2</ele>
        <time>2016-01-19T16:28:15Z</time>
      </trkpt>
      <trkpt lat="42.864277" lon="-5.3648738">
        <ele>1353.2</ele>
        <time>2016-01-19T16:28:17Z</time>
      </trkpt>
      <trkpt lat="42.8641287" lon="-5.3649249">
        <ele>1350.7</ele>
        <time>2016-01-19T16:28:19Z</time>
      </trkpt>
      <trkpt lat="42.8639232" lon="-5.3649876">
        <ele>1347.7</ele>
        <time>2016-01-19T16:28:22Z</time>
      </trkpt>
      <trkpt lat="42.863708" lon="-5.3650521">
        <ele>1345.9</ele>
        <time>2016-01-19T16:28:25Z</time>
      </trkpt>
      <trkpt lat="42.8635528" lon="-5.3651255">
        <ele>1344.5</ele>
        <time>2016-01-19T16:28:27Z</time>
      </trkpt>
      <trkpt lat="42.8634049" lon="-5.3651947">
        <ele>1343.6</ele>
        <time>2016-01-19T16:28:29Z</time>
      </trkpt>
      <trkpt lat="42.8632085" lon="-5.3652773">
        <ele>1340.7</ele>
        <time>2016-01-19T16:28:32Z</time>
      </trkpt>
      <trkpt lat="42.8630323" lon="-5.3653333">
        <ele>1337.4</ele>
        <time>2016-01-19T16:28:35Z</time>
      </trkpt>
      <trkpt lat="42.8629207" lon="-5.365466">
        <ele>1334.5</ele>
        <time>2016-01-19T16:28:37Z</time>
      </trkpt>
      <trkpt lat="42.8627619" lon="-5.3656284">
        <ele>1330.8</ele>
        <time>2016-01-19T16:28:40Z</time>
      </trkpt>
      <trkpt lat="42.8626004" lon="-5.3656057">
        <ele>1328.3</ele>
        <time>2016-01-19T16:28:42Z</time>
      </trkpt>
      <trkpt lat="42.8625387" lon="-5.365438">
        <ele>1325.8</ele>
        <time>2016-01-19T16:28:44Z</time>
      </trkpt>
      <trkpt lat="42.8624984" lon="-5.3652368">
        <ele>1322.4</ele>
        <time>2016-01-19T16:28:46Z</time>
      </trkpt>
      <trkpt lat="42.8625688" lon="-5.3649267">
        <ele>1318.6</ele>
        <time>2016-01-19T16:28:48Z</time>
      </trkpt>
      <trkpt lat="42.8627177" lon="-5.3646583">
        <ele>1315.7</ele>
        <time>2016-01-19T16:28:50Z</time>
      </trkpt>
      <trkpt lat="42.862862" lon="-5.3644695">
        <ele>1314.0</ele>
        <time>2016-01-19T16:28:52Z</time>
      </trkpt>
      <trkpt lat="42.862993" lon="-5.3642365">
        <ele>1313.3</ele>
        <time>2016-01-19T16:28:54Z</time>
      </trkpt>
      <trkpt lat="42.8630656" lon="-5.3639661">
        <ele>1312.7</ele>
        <time>2016-01-19T16:28:56Z</time>
      </trkpt>
      <trkpt lat="42.8630998" lon="-5.3636883">
        <ele>1312.4</ele>
        <time>2016-01-19T16:28:58Z</time>
      </trkpt>
      <trkpt lat="42.8630977" lon="-5.3634688">
        <ele>1312.0</ele>
        <time>2016-01-19T16:29:00Z</time>
      </trkpt>
      <trkpt lat="42.8630608" lon="-5.3631942">
        <ele>1311.5</ele>
        <time>2016-01-19T16:29:02Z</time>
      </trkpt>
      <trkpt lat="42.8630279" lon="-5.3629482">
        <ele>1311.0</ele>
        <time>2016-01-19T16:29:04Z</time>
      </trkpt>
      <trkpt lat="42.8629281" lon="-5.3627758">
        <ele>1310.6</ele>
        <time>2016-01-19T16:29:06Z</time>
      </trkpt>
      <trkpt lat="42.8627993" lon="-5.3626306">
        <ele>1310.1</ele>
        <time>2016-01-19T16:29:08Z</time>
      </trkpt>
      <trkpt lat="42.8626784" lon="-5.3625305">
        <ele>1308.6</ele>
        <time>2016-01-19T16:29:10Z</time>
      </trkpt>
      <trkpt lat="42.8625443" lon="-5.3624622">
        <ele>1305.0</ele>
        <time>2016-01-19T16:29:12Z</time>
      </trkpt>
      <trkpt lat="42.8623853" lon="-5.3624251">
        <ele>1301.9</ele>
        <time>2016-01-19T16:29:14Z</time>
      </trkpt>
      <trkpt lat="42.862215" lon="-5.3623543">
        <ele>1296.3</ele>
        <time>2016-01-19T16:29:17Z</time>
      </trkpt>
      <trkpt lat="42.8620961" lon="-5.3623283">
        <ele>1292.8</ele>
        <time>2016-01-19T16:29:19Z</time>
      </trkpt>
      <trkpt lat="42.8619712" lon="-5.3623224">
        <ele>1289.7</ele>
        <time>2016-01-19T16:29:21Z</time>
      </trkpt>
      <trkpt lat="42.8617849" lon="-5.3623649">
        <ele>1285.7</ele>
        <time>2016-01-19T16:29:24Z</time>
      </trkpt>
      <trkpt lat="42.861678" lon="-5.3623977">
        <ele>1282.9</ele>
        <time>2016-01-19T16:29:26Z</time>
      </trkpt>
      <trkpt lat="42.8615726" lon="-5.3624661">
        <ele>1279.5</ele>
        <time>2016-01-19T16:29:28Z</time>
      </trkpt>
      <trkpt lat="42.8614487" lon="-5.3625623">
        <ele>1275.3</ele>
        <time>2016-01-19T16:29:31Z</time>
      </trkpt>
      <trkpt lat="42.8613136" lon="-5.3627381">
        <ele>1268.9</ele>
        <time>2016-01-19T16:29:34Z</time>
      </trkpt>
      <trkpt lat="42.8611745" lon="-5.3628484">
        <ele>1263.3</ele>
        <time>2016-01-19T16:29:37Z</time>
      </trkpt>
      <trkpt lat="42.8610668" lon="-5.3630157">
        <ele>1257.9</ele>
        <time>2016-01-19T16:29:40Z</time>
      </trkpt>
      <trkpt lat="42.860914" lon="-5.3631229">
        <ele>1253.1</ele>
        <time>2016-01-19T16:29:43Z</time>
      </trkpt>
      <trkpt lat="42.8607402" lon="-5.3632156">
        <ele>1248.1</ele>
        <time>2016-01-19T16:29:46Z</time>
      </trkpt>
      <trkpt lat="42.8605499" lon="-5.3633386">
        <ele>1244.7</ele>
        <time>2016-01-19T16:29:49Z</time>
      </trkpt>
      <trkpt lat="42.8604035" lon="-5.3633646">
        <ele>1241.9</ele>
        <time>2016-01-19T16:29:51Z</time>
      </trkpt>
      <trkpt lat="42.8601968" lon="-5.363363">
        <ele>1237.7</ele>
        <time>2016-01-19T16:29:54Z</time>
      </trkpt>
      <trkpt lat="42.8600535" lon="-5.3633249">
        <ele>1235.1</ele>
        <time>2016-01-19T16:29:56Z</time>
      </trkpt>
      <trkpt lat="42.8599321" lon="-5.3632775">
        <ele>1230.2</ele>
        <time>2016-01-19T16:29:58Z</time>
      </trkpt>
      <trkpt lat="42.8598634" lon="-5.3632504">
        <ele>1230.2</ele>
        <time>2016-01-19T16:29:59Z</time>
      </trkpt>
      <trkpt lat="42.8598044" lon="-5.3632115">
        <ele>1230.2</ele>
        <time>2016-01-19T16:30:00Z</time>
      </trkpt>
      <trkpt lat="42.8597549" lon="-5.3631719">
        <ele>1230.2</ele>
        <time>2016-01-19T16:30:01Z</time>
      </trkpt>
      <trkpt lat="42.8597027" lon="-5.3631372">
        <ele>1230.2</ele>
        <time>2016-01-19T16:30:02Z</time>
      </trkpt>
      <trkpt lat="42.8595122" lon="-5.3630486">
        <ele>1226.7</ele>
        <time>2016-01-19T16:30:05Z</time>
      </trkpt>
      <trkpt lat="42.8593856" lon="-5.3629794">
        <ele>1225.4</ele>
        <time>2016-01-19T16:30:07Z</time>
      </trkpt>
      <trkpt lat="42.8592523" lon="-5.3629054">
        <ele>1224.2</ele>
        <time>2016-01-19T16:30:09Z</time>
      </trkpt>
      <trkpt lat="42.8590735" lon="-5.3627624">
        <ele>1220.0</ele>
        <time>2016-01-19T16:30:12Z</time>
      </trkpt>
      <trkpt lat="42.8589405" lon="-5.3626861">
        <ele>1217.8</ele>
        <time>2016-01-19T16:30:14Z</time>
      </trkpt>
      <trkpt lat="42.8587974" lon="-5.3626173">
        <ele>1215.8</ele>
        <time>2016-01-19T16:30:16Z</time>
      </trkpt>
      <trkpt lat="42.8586959" lon="-5.3624727">
        <ele>1215.2</ele>
        <time>2016-01-19T16:30:19Z</time>
      </trkpt>
      <trkpt lat="42.858558" lon="-5.3623762">
        <ele>1213.2</ele>
        <time>2016-01-19T16:30:21Z</time>
      </trkpt>
      <trkpt lat="42.85841" lon="-5.3623107">
        <ele>1212.1</ele>
        <time>2016-01-19T16:30:23Z</time>
      </trkpt>
      <trkpt lat="42.8582673" lon="-5.3622324">
        <ele>1211.4</ele>
        <time>2016-01-19T16:30:25Z</time>
      </trkpt>
      <trkpt lat="42.8580659" lon="-5.3621497">
        <ele>1208.2</ele>
        <time>2016-01-19T16:30:28Z</time>
      </trkpt>
      <trkpt lat="42.8579428" lon="-5.3620975">
        <ele>1202.9</ele>
        <time>2016-01-19T16:30:30Z</time>
      </trkpt>
      <trkpt lat="42.8578779" lon="-5.3620678">
        <ele>1202.9</ele>
        <time>2016-01-19T16:30:31Z</time>
      </trkpt>
      <trkpt lat="42.8578074" lon="-5.3620295">
        <ele>1202.9</ele>
        <time>2016-01-19T16:30:32Z</time>
      </trkpt>
      <trkpt lat="42.8577342" lon="-5.361991">
        <ele>1202.9</ele>
        <time>2016-01-19T16:30:33Z</time>
      </trkpt>
      <trkpt lat="42.8576598" lon="-5.361943">
        <ele>1202.9</ele>
        <time>2016-01-19T16:30:34Z</time>
      </trkpt>
      <trkpt lat="42.8575433" lon="-5.3618294">
        <ele>1200.6</ele>
        <time>2016-01-19T16:30:36Z</time>
      </trkpt>
      <trkpt lat="42.8574648" lon="-5.3616782">
        <ele>1197.8</ele>
        <time>2016-01-19T16:30:38Z</time>
      </trkpt>
      <trkpt lat="42.857428" lon="-5.3614314">
        <ele>1195.1</ele>
        <time>2016-01-19T16:30:40Z</time>
      </trkpt>
      <trkpt lat="42.8574844" lon="-5.3611348">
        <ele>1192.7</ele>
        <time>2016-01-19T16:30:42Z</time>
      </trkpt>
      <trkpt lat="42.8576352" lon="-5.3609266">
        <ele>1189.8</ele>
        <time>2016-01-19T16:30:44Z</time>
      </trkpt>
      <trkpt lat="42.8578189" lon="-5.3608239">
        <ele>1187.0</ele>
        <time>2016-01-19T16:30:46Z</time>
      </trkpt>
      <trkpt lat="42.8579942" lon="-5.3607714">
        <ele>1184.1</ele>
        <time>2016-01-19T16:30:48Z</time>
      </trkpt>
      <trkpt lat="42.8582113" lon="-5.3607142">
        <ele>1182.1</ele>
        <time>2016-01-19T16:30:50Z</time>
      </trkpt>
      <trkpt lat="42.8584178" lon="-5.3606927">
        <ele>1179.1</ele>
        <time>2016-01-19T16:30:52Z</time>
      </trkpt>
      <trkpt lat="42.8586109" lon="-5.3606844">
        <ele>1175.2</ele>
        <time>2016-01-19T16:30:54Z</time>
      </trkpt>
      <trkpt lat="42.8589031" lon="-5.3606272">
        <ele>1172.4</ele>
        <time>2016-01-19T16:30:57Z</time>
      </trkpt>
      <trkpt lat="42.859003" lon="-5.3606197">
        <ele>1167.3</ele>
        <time>2016-01-19T16:30:58Z</time>
      </trkpt>
      <trkpt lat="42.8591003" lon="-5.360606">
        <ele>1167.3</ele>
        <time>2016-01-19T16:30:59Z</time>
      </trkpt>
      <trkpt lat="42.8592011" lon="-5.3605893">
        <ele>1167.3</ele>
        <time>2016-01-19T16:31:00Z</time>
      </trkpt>
      <trkpt lat="42.8592927" lon="-5.360567">
        <ele>1167.3</ele>
        <time>2016-01-19T16:31:01Z</time>
      </trkpt>
      <trkpt lat="42.8594021" lon="-5.36055">
        <ele>1167.3</ele>
        <time>2016-01-19T16:31:02Z</time>
      </trkpt>
      <trkpt lat="42.8595077" lon="-5.3605252">
        <ele>1162.2</ele>
        <time>2016-01-19T16:31:03Z</time>
      </trkpt>
      <trkpt lat="42.8596172" lon="-5.3604909">
        <ele>1162.2</ele>
        <time>2016-01-19T16:31:04Z</time>
      </trkpt>
      <trkpt lat="42.8597138" lon="-5.3604473">
        <ele>1162.2</ele>
        <time>2016-01-19T16:31:05Z</time>
      </trkpt>
      <trkpt lat="42.8598089" lon="-5.3603913">
        <ele>1162.2</ele>
        <time>2016-01-19T16:31:06Z</time>
      </trkpt>
      <trkpt lat="42.8598999" lon="-5.3603297">
        <ele>1162.2</ele>
        <time>2016-01-19T16:31:07Z</time>
      </trkpt>
      <trkpt lat="42.8600536" lon="-5.3601712">
        <ele>1160.2</ele>
        <time>2016-01-19T16:31:09Z</time>
      </trkpt>
      <trkpt lat="42.8601612" lon="-5.3599293">
        <ele>1155.4</ele>
        <time>2016-01-19T16:31:11Z</time>
      </trkpt>
      <trkpt lat="42.8602163" lon="-5.3596569">
        <ele>1151.2</ele>
        <time>2016-01-19T16:31:13Z</time>
      </trkpt>
      <trkpt lat="42.860187" lon="-5.3594255">
        <ele>1149.3</ele>
        <time>2016-01-19T16:31:15Z</time>
      </trkpt>
      <trkpt lat="42.8600886" lon="-5.3592652">
        <ele>1148.6</ele>
        <time>2016-01-19T16:31:17Z</time>
      </trkpt>
      <trkpt lat="42.8599531" lon="-5.359225">
        <ele>1146.5</ele>
        <time>2016-01-19T16:31:19Z</time>
      </trkpt>
      <trkpt lat="42.8598231" lon="-5.3593079">
        <ele>1143.9</ele>
        <time>2016-01-19T16:31:21Z</time>
      </trkpt>
      <trkpt lat="42.8597085" lon="-5.3595146">
        <ele>1141.1</ele>
        <time>2016-01-19T16:31:24Z</time>
      </trkpt>
      <trkpt lat="42.8595691" lon="-5.3597101">
        <ele>1138.4</ele>
        <time>2016-01-19T16:31:27Z</time>
      </trkpt>
      <trkpt lat="42.8593885" lon="-5.3597282">
        <ele>1135.0</ele>
        <time>2016-01-19T16:31:30Z</time>
      </trkpt>
      <trkpt lat="42.8592721" lon="-5.3595809">
        <ele>1132.4</ele>
        <time>2016-01-19T16:31:32Z</time>
      </trkpt>
      <trkpt lat="42.8592352" lon="-5.3593121">
        <ele>1129.4</ele>
        <time>2016-01-19T16:31:34Z</time>
      </trkpt>
      <trkpt lat="42.8592777" lon="-5.3590092">
        <ele>1126.9</ele>
        <time>2016-01-19T16:31:36Z</time>
      </trkpt>
      <trkpt lat="42.8593104" lon="-5.358763">
        <ele>1124.8</ele>
        <time>2016-01-19T16:31:38Z</time>
      </trkpt>
      <trkpt lat="42.8593454" lon="-5.3585468">
        <ele>1123.1</ele>
        <time>2016-01-19T16:31:40Z</time>
      </trkpt>
      <trkpt lat="42.8593431" lon="-5.3582957">
        <ele>1121.3</ele>
        <time>2016-01-19T16:31:42Z</time>
      </trkpt>
      <trkpt lat="42.8591964" lon="-5.3581029">
        <ele>1119.3</ele>
        <time>2016-01-19T16:31:44Z</time>
      </trkpt>
      <trkpt lat="42.859061" lon="-5.3580717">
        <ele>1116.6</ele>
        <time>2016-01-19T16:31:46Z</time>
      </trkpt>
      <trkpt lat="42.85893" lon="-5.3581396">
        <ele>1113.0</ele>
        <time>2016-01-19T16:31:48Z</time>
      </trkpt>
      <trkpt lat="42.8587938" lon="-5.3581574">
        <ele>1109.3</ele>
        <time>2016-01-19T16:31:50Z</time>
      </trkpt>
      <trkpt lat="42.8584905" lon="-5.3579242">
        <ele>1106.0</ele>
        <time>2016-01-19T16:31:54Z</time>
      </trkpt>
      <trkpt lat="42.8583678" lon="-5.3578601">
        <ele>1103.4</ele>
        <time>2016-01-19T16:31:56Z</time>
      </trkpt>
      <trkpt lat="42.8582369" lon="-5.3577455">
        <ele>1096.5</ele>
        <time>2016-01-19T16:32:01Z</time>
      </trkpt>
      <trkpt lat="42.858331" lon="-5.3577658">
        <ele>1054.9</ele>
        <time>2016-01-19T16:32:47Z</time>
      </trkpt>
      <trkpt lat="42.8582788" lon="-5.3577838">
        <ele>1054.9</ele>
        <time>2016-01-19T16:33:12Z</time>
      </trkpt>
      <trkpt lat="42.8581902" lon="-5.3577411">
        <ele>1054.9</ele>
        <time>2016-01-19T16:33:20Z</time>
      </trkpt>
      <trkpt lat="42.8580995" lon="-5.3577245">
        <ele>1053.7</ele>
        <time>2016-01-19T16:34:02Z</time>
      </trkpt>
      <trkpt lat="42.8580977" lon="-5.3577792">
        <ele>1052.1</ele>
        <time>2016-01-19T16:34:42Z</time>
      </trkpt>
      <trkpt lat="42.8580977" lon="-5.3577792">
        <time>2016-01-19T16:34:42Z</time>
      </trkpt>
    </trkseg>
    <trkseg>
      <trkpt lat="42.8580977" lon="-5.3577792">
        <time>2016-01-19T16:34:43Z</time>
      </trkpt>
    </trkseg>
  </trk>
</gpx>